sensor_id;sensor_type;location;lat;lon;timestamp;pressure;altitude;pressure_sealevel;temperature;humidity
73817;BME280;62146;53.232;-1.304;2023-03-16T00:02:18;99557.47;;;6.91;100.00
73817;BME280;62146;53.232;-1.304;2023-03-16T00:04:45;99559.06;;;6.92;100.00
73817;BME280;62146;53.232;-1.304;2023-03-16T00:07:13;99545.69;;;6.94;100.00
73817;BME280;62146;53.232;-1.304;2023-03-16T00:09:40;99553.34;;;6.95;100.00
73817;BME280;62146;53.232;-1.304;2023-03-16T00:12:13;99550.69;;;6.95;100.00
73817;BME280;62146;53.232;-1.304;2023-03-16T00:14:47;99545.19;;;6.96;100.00
73817;BME280;62146;53.232;-1.304;2023-03-16T00:17:16;99542.53;;;6.96;100.00
73817;BME280;62146;53.232;-1.304;2023-03-16T00:19:51;99533.63;;;6.97;100.00
73817;BME280;62146;53.232;-1.304;2023-03-16T00:22:29;99530.72;;;6.99;100.00
73817;BME280;62146;53.232;-1.304;2023-03-16T00:24:56;99515.72;;;6.99;100.00
73817;BME280;62146;53.232;-1.304;2023-03-16T00:27:25;99521.56;;;7.01;100.00
73817;BME280;62146;53.232;-1.304;2023-03-16T00:29:52;99518.94;;;7.01;100.00
73817;BME280;62146;53.232;-1.304;2023-03-16T00:32:26;99515.78;;;7.04;100.00
73817;BME280;62146;53.232;-1.304;2023-03-16T00:34:53;99509.72;;;7.04;100.00
73817;BME280;62146;53.232;-1.304;2023-03-16T00:37:21;99508.47;;;7.06;100.00
73817;BME280;62146;53.232;-1.304;2023-03-16T00:39:49;99503.19;;;7.06;100.00
73817;BME280;62146;53.232;-1.304;2023-03-16T00:42:18;99509.84;;;7.09;100.00
73817;BME280;62146;53.232;-1.304;2023-03-16T00:44:45;99500.09;;;7.09;100.00
73817;BME280;62146;53.232;-1.304;2023-03-16T00:47:12;99501.69;;;7.10;100.00
73817;BME280;62146;53.232;-1.304;2023-03-16T00:49:41;99491.72;;;7.12;100.00
73817;BME280;62146;53.232;-1.304;2023-03-16T00:52:10;99489.06;;;7.12;100.00
73817;BME280;62146;53.232;-1.304;2023-03-16T00:54:45;99488.81;;;7.14;100.00
73817;BME280;62146;53.232;-1.304;2023-03-16T00:57:14;99480.91;;;7.14;100.00
73817;BME280;62146;53.232;-1.304;2023-03-16T00:59:44;99468.28;;;7.16;100.00
73817;BME280;62146;53.232;-1.304;2023-03-16T01:02:12;99456.47;;;7.18;100.00
73817;BME280;62146;53.232;-1.304;2023-03-16T01:04:39;99456.47;;;7.18;100.00
73817;BME280;62146;53.232;-1.304;2023-03-16T01:07:08;99447.28;;;7.21;100.00
73817;BME280;62146;53.232;-1.304;2023-03-16T01:09:36;99448.06;;;7.21;100.00
73817;BME280;62146;53.232;-1.304;2023-03-16T01:12:04;99431.22;;;7.22;100.00
73817;BME280;62146;53.232;-1.304;2023-03-16T01:14:33;99429.38;;;7.22;100.00
73817;BME280;62146;53.232;-1.304;2023-03-16T01:17:01;99424.66;;;7.24;100.00
73817;BME280;62146;53.232;-1.304;2023-03-16T01:19:28;99420.97;;;7.25;100.00
73817;BME280;62146;53.232;-1.304;2023-03-16T01:21:55;99420.72;;;7.27;100.00
73817;BME280;62146;53.232;-1.304;2023-03-16T01:24:22;99413.66;;;7.27;100.00
73817;BME280;62146;53.232;-1.304;2023-03-16T01:26:49;99399.16;;;7.30;100.00
73817;BME280;62146;53.232;-1.304;2023-03-16T01:29:16;99389.66;;;7.29;100.00
73817;BME280;62146;53.232;-1.304;2023-03-16T01:31:42;99388.63;;;7.30;100.00
73817;BME280;62146;53.232;-1.304;2023-03-16T01:34:09;99387.56;;;7.31;100.00
73817;BME280;62146;53.232;-1.304;2023-03-16T01:36:42;99387.09;;;7.34;100.00
73817;BME280;62146;53.232;-1.304;2023-03-16T01:39:12;99372.84;;;7.35;100.00
73817;BME280;62146;53.232;-1.304;2023-03-16T01:41:40;99366.31;;;7.37;100.00
73817;BME280;62146;53.232;-1.304;2023-03-16T01:44:26;99364.47;;;7.38;100.00
73817;BME280;62146;53.232;-1.304;2023-03-16T01:46:56;99358.97;;;7.39;100.00
73817;BME280;62146;53.232;-1.304;2023-03-16T01:49:28;99364.22;;;7.39;100.00
73817;BME280;62146;53.232;-1.304;2023-03-16T01:51:59;99355.03;;;7.42;100.00
73817;BME280;62146;53.232;-1.304;2023-03-16T01:54:30;99356.63;;;7.43;100.00
73817;BME280;62146;53.232;-1.304;2023-03-16T01:59:35;99349.25;;;7.45;100.00
73817;BME280;62146;53.232;-1.304;2023-03-16T02:02:04;99347.19;;;7.47;100.00
73817;BME280;62146;53.232;-1.304;2023-03-16T02:04:39;99344.28;;;7.48;100.00
73817;BME280;62146;53.232;-1.304;2023-03-16T02:07:08;99340.38;;;7.50;100.00
73817;BME280;62146;53.232;-1.304;2023-03-16T02:09:38;99340.13;;;7.52;100.00
73817;BME280;62146;53.232;-1.304;2023-03-16T02:12:08;99327.72;;;7.52;100.00
73817;BME280;62146;53.232;-1.304;2023-03-16T02:14:50;99332.78;;;7.54;100.00
73817;BME280;62146;53.232;-1.304;2023-03-16T02:17:20;99315.91;;;7.55;100.00
73817;BME280;62146;53.232;-1.304;2023-03-16T02:22:41;99313.56;;;7.58;100.00
73817;BME280;62146;53.232;-1.304;2023-03-16T02:25:09;99315.94;;;7.60;100.00
73817;BME280;62146;53.232;-1.304;2023-03-16T02:32:38;99303.84;;;7.64;100.00
73817;BME280;62146;53.232;-1.304;2023-03-16T02:35:07;99301.78;;;7.66;100.00
73817;BME280;62146;53.232;-1.304;2023-03-16T02:37:33;99293.63;;;7.67;100.00
73817;BME280;62146;53.232;-1.304;2023-03-16T02:40:01;99294.16;;;7.69;100.00
73817;BME280;62146;53.232;-1.304;2023-03-16T02:42:35;99300.00;;;7.71;100.00
73817;BME280;62146;53.232;-1.304;2023-03-16T02:45:01;99293.66;;;7.72;100.00
73817;BME280;62146;53.232;-1.304;2023-03-16T02:47:39;99284.72;;;7.73;100.00
73817;BME280;62146;53.232;-1.304;2023-03-16T02:50:08;99281.03;;;7.74;100.00
73817;BME280;62146;53.232;-1.304;2023-03-16T02:52:36;99269.41;;;7.75;100.00
73817;BME280;62146;53.232;-1.304;2023-03-16T02:55:07;99268.38;;;7.76;100.00
73817;BME280;62146;53.232;-1.304;2023-03-16T02:57:34;99278.69;;;7.77;100.00
73817;BME280;62146;53.232;-1.304;2023-03-16T03:00:01;99270.25;;;7.80;100.00
73817;BME280;62146;53.232;-1.304;2023-03-16T03:02:27;99263.16;;;7.81;100.00
73817;BME280;62146;53.232;-1.304;2023-03-16T03:04:54;99259.47;;;7.82;100.00
73817;BME280;62146;53.232;-1.304;2023-03-16T03:07:20;99263.44;;;7.84;100.00
73817;BME280;62146;53.232;-1.304;2023-03-16T03:09:47;99258.97;;;7.85;100.00
73817;BME280;62146;53.232;-1.304;2023-03-16T03:12:13;99255.81;;;7.88;100.00
73817;BME280;62146;53.232;-1.304;2023-03-16T03:14:40;99253.75;;;7.90;100.00
73817;BME280;62146;53.232;-1.304;2023-03-16T03:17:08;99249.00;;;7.92;100.00
73817;BME280;62146;53.232;-1.304;2023-03-16T03:19:35;99244.53;;;7.92;100.00
73817;BME280;62146;53.232;-1.304;2023-03-16T03:22:03;99236.34;;;7.94;100.00
73817;BME280;62146;53.232;-1.304;2023-03-16T03:24:32;99231.59;;;7.96;100.00
73817;BME280;62146;53.232;-1.304;2023-03-16T03:26:59;99234.81;;;7.98;100.00
73817;BME280;62146;53.232;-1.304;2023-03-16T03:29:26;99243.25;;;8.00;100.00
73817;BME280;62146;53.232;-1.304;2023-03-16T03:32:00;99243.03;;;8.01;100.00
73817;BME280;62146;53.232;-1.304;2023-03-16T03:34:28;99242.75;;;8.02;100.00
73817;BME280;62146;53.232;-1.304;2023-03-16T03:36:54;99235.41;;;8.04;100.00
73817;BME280;62146;53.232;-1.304;2023-03-16T03:39:21;99232.28;;;8.07;100.00
73817;BME280;62146;53.232;-1.304;2023-03-16T03:41:48;99239.16;;;8.08;100.00
73817;BME280;62146;53.232;-1.304;2023-03-16T03:44:14;99235.19;;;8.11;100.00
73817;BME280;62146;53.232;-1.304;2023-03-16T03:46:41;99236.81;;;8.12;100.00
73817;BME280;62146;53.232;-1.304;2023-03-16T03:49:07;99233.66;;;8.15;100.00
73817;BME280;62146;53.232;-1.304;2023-03-16T03:51:34;99229.19;;;8.15;100.00
73817;BME280;62146;53.232;-1.304;2023-03-16T03:54:00;99223.66;;;8.17;100.00
73817;BME280;62146;53.232;-1.304;2023-03-16T03:56:27;99218.91;;;8.19;100.00
73817;BME280;62146;53.232;-1.304;2023-03-16T03:58:53;99225.53;;;8.21;100.00
73817;BME280;62146;53.232;-1.304;2023-03-16T04:01:20;99220.00;;;8.23;100.00
73817;BME280;62146;53.232;-1.304;2023-03-16T04:03:47;99223.97;;;8.25;100.00
73817;BME280;62146;53.232;-1.304;2023-03-16T04:06:14;99225.31;;;8.28;100.00
73817;BME280;62146;53.232;-1.304;2023-03-16T04:08:41;99224.25;;;8.28;100.00
73817;BME280;62146;53.232;-1.304;2023-03-16T04:11:07;99214.50;;;8.29;100.00
73817;BME280;62146;53.232;-1.304;2023-03-16T04:13:35;99225.59;;;8.31;100.00
73817;BME280;62146;53.232;-1.304;2023-03-16T04:16:01;99219.00;;;8.33;100.00
73817;BME280;62146;53.232;-1.304;2023-03-16T04:18:29;99222.47;;;8.34;100.00
73817;BME280;62146;53.232;-1.304;2023-03-16T04:20:55;99209.00;;;8.35;100.00
73817;BME280;62146;53.232;-1.304;2023-03-16T04:23:22;99202.41;;;8.38;100.00
73817;BME280;62146;53.232;-1.304;2023-03-16T04:25:50;99204.78;;;8.39;100.00
73817;BME280;62146;53.232;-1.304;2023-03-16T04:28:17;99203.50;;;8.42;100.00
73817;BME280;62146;53.232;-1.304;2023-03-16T04:30:43;99205.09;;;8.43;100.00
73817;BME280;62146;53.232;-1.304;2023-03-16T04:33:10;99208.25;;;8.45;100.00
73817;BME280;62146;53.232;-1.304;2023-03-16T04:35:36;99200.88;;;8.47;100.00
73817;BME280;62146;53.232;-1.304;2023-03-16T04:38:04;99204.31;;;8.47;100.00
73817;BME280;62146;53.232;-1.304;2023-03-16T04:40:30;99205.66;;;8.50;100.00
73817;BME280;62146;53.232;-1.304;2023-03-16T04:42:57;99195.88;;;8.50;100.00
73817;BME280;62146;53.232;-1.304;2023-03-16T04:45:23;99209.38;;;8.54;100.00
73817;BME280;62146;53.232;-1.304;2023-03-16T04:47:50;99202.25;;;8.54;100.00
73817;BME280;62146;53.232;-1.304;2023-03-16T04:50:16;99202.78;;;8.56;100.00
73817;BME280;62146;53.232;-1.304;2023-03-16T04:52:43;99196.47;;;8.57;100.00
73817;BME280;62146;53.232;-1.304;2023-03-16T04:55:09;99191.97;;;8.57;100.00
73817;BME280;62146;53.232;-1.304;2023-03-16T04:57:37;99203.06;;;8.59;100.00
73817;BME280;62146;53.232;-1.304;2023-03-16T05:00:04;99200.97;;;8.61;100.00
73817;BME280;62146;53.232;-1.304;2023-03-16T05:02:39;99205.19;;;8.62;100.00
73817;BME280;62146;53.232;-1.304;2023-03-16T05:05:06;99201.25;;;8.65;100.00
73817;BME280;62146;53.232;-1.304;2023-03-16T05:07:33;99197.56;;;8.66;100.00
73817;BME280;62146;53.232;-1.304;2023-03-16T05:09:59;99199.16;;;8.67;100.00
73817;BME280;62146;53.232;-1.304;2023-03-16T05:12:26;99202.34;;;8.69;100.00
73817;BME280;62146;53.232;-1.304;2023-03-16T05:14:52;99183.56;;;8.70;100.00
73817;BME280;62146;53.232;-1.304;2023-03-16T05:17:22;99184.13;;;8.72;100.00
73817;BME280;62146;53.232;-1.304;2023-03-16T05:19:48;99178.56;;;8.74;100.00
73817;BME280;62146;53.232;-1.304;2023-03-16T05:22:15;99165.88;;;8.76;100.00
73817;BME280;62146;53.232;-1.304;2023-03-16T05:24:42;99169.88;;;8.78;100.00
73817;BME280;62146;53.232;-1.304;2023-03-16T05:27:08;99189.16;;;8.79;100.00
73817;BME280;62146;53.232;-1.304;2023-03-16T05:29:35;99182.84;;;8.80;100.00
73817;BME280;62146;53.232;-1.304;2023-03-16T05:32:02;99178.09;;;8.82;100.00
73817;BME280;62146;53.232;-1.304;2023-03-16T05:34:29;99182.31;;;8.82;100.00
73817;BME280;62146;53.232;-1.304;2023-03-16T05:36:57;99188.16;;;8.84;100.00
73817;BME280;62146;53.232;-1.304;2023-03-16T05:39:23;99181.53;;;8.87;100.00
73817;BME280;62146;53.232;-1.304;2023-03-16T05:41:50;99186.81;;;8.87;100.00
73817;BME280;62146;53.232;-1.304;2023-03-16T05:44:16;99178.66;;;8.88;100.00
73817;BME280;62146;53.232;-1.304;2023-03-16T05:46:43;99181.81;;;8.90;100.00
73817;BME280;62146;53.232;-1.304;2023-03-16T05:49:11;99186.06;;;8.91;100.00
73817;BME280;62146;53.232;-1.304;2023-03-16T05:51:38;99189.22;;;8.93;100.00
73817;BME280;62146;53.232;-1.304;2023-03-16T05:54:04;99186.59;;;8.93;100.00
73817;BME280;62146;53.232;-1.304;2023-03-16T05:56:31;99181.03;;;8.95;100.00
73817;BME280;62146;53.232;-1.304;2023-03-16T05:58:58;99180.00;;;8.96;100.00
73817;BME280;62146;53.232;-1.304;2023-03-16T06:01:25;99186.88;;;8.97;100.00
73817;BME280;62146;53.232;-1.304;2023-03-16T06:03:52;99179.50;;;8.99;100.00
73817;BME280;62146;53.232;-1.304;2023-03-16T06:06:21;99175.00;;;8.99;100.00
73817;BME280;62146;53.232;-1.304;2023-03-16T06:08:48;99178.44;;;9.00;100.00
73817;BME280;62146;53.232;-1.304;2023-03-16T06:11:14;99185.03;;;9.02;100.00
73817;BME280;62146;53.232;-1.304;2023-03-16T06:13:41;99178.16;;;9.01;100.00
73817;BME280;62146;53.232;-1.304;2023-03-16T06:16:08;99171.56;;;9.04;100.00
73817;BME280;62146;53.232;-1.304;2023-03-16T06:18:36;99170.50;;;9.05;100.00
73817;BME280;62146;53.232;-1.304;2023-03-16T06:21:03;99176.34;;;9.07;100.00
73817;BME280;62146;53.232;-1.304;2023-03-16T06:23:30;99162.06;;;9.08;100.00
73817;BME280;62146;53.232;-1.304;2023-03-16T06:25:56;99155.19;;;9.07;100.00
73817;BME280;62146;53.232;-1.304;2023-03-16T06:28:24;99150.44;;;9.08;100.00
73817;BME280;62146;53.232;-1.304;2023-03-16T06:30:55;99160.22;;;9.08;100.00
73817;BME280;62146;53.232;-1.304;2023-03-16T06:33:22;99153.63;;;9.10;100.00
73817;BME280;62146;53.232;-1.304;2023-03-16T06:35:49;99152.78;;;9.10;100.00
73817;BME280;62146;53.232;-1.304;2023-03-16T06:38:18;99154.41;;;9.11;100.00
73817;BME280;62146;53.232;-1.304;2023-03-16T06:40:44;99150.97;;;9.10;100.00
73817;BME280;62146;53.232;-1.304;2023-03-16T06:43:11;99149.91;;;9.11;100.00
73817;BME280;62146;53.232;-1.304;2023-03-16T06:45:38;99143.84;;;9.11;100.00
73817;BME280;62146;53.232;-1.304;2023-03-16T06:48:05;99139.34;;;9.11;100.00
73817;BME280;62146;53.232;-1.304;2023-03-16T06:50:32;99146.22;;;9.12;100.00
73817;BME280;62146;53.232;-1.304;2023-03-16T06:52:58;99147.00;;;9.13;100.00
73817;BME280;62146;53.232;-1.304;2023-03-16T06:55:25;99148.34;;;9.15;100.00
73817;BME280;62146;53.232;-1.304;2023-03-16T06:57:51;99135.13;;;9.15;100.00
73817;BME280;62146;53.232;-1.304;2023-03-16T07:00:18;99145.69;;;9.15;100.00
73817;BME280;62146;53.232;-1.304;2023-03-16T07:02:45;99147.28;;;9.16;100.00
73817;BME280;62146;53.232;-1.304;2023-03-16T07:05:12;99137.47;;;9.17;100.00
73817;BME280;62146;53.232;-1.304;2023-03-16T07:07:41;99129.31;;;9.18;100.00
73817;BME280;62146;53.232;-1.304;2023-03-16T07:10:13;99134.31;;;9.20;100.00
73817;BME280;62146;53.232;-1.304;2023-03-16T07:12:41;99121.09;;;9.20;100.00
73817;BME280;62146;53.232;-1.304;2023-03-16T07:15:08;99124.53;;;9.20;100.00
73817;BME280;62146;53.232;-1.304;2023-03-16T07:17:35;99127.72;;;9.22;100.00
73817;BME280;62146;53.232;-1.304;2023-03-16T07:20:03;99129.31;;;9.23;100.00
73817;BME280;62146;53.232;-1.304;2023-03-16T07:22:31;99125.09;;;9.27;100.00
73817;BME280;62146;53.232;-1.304;2023-03-16T07:24:58;99112.13;;;9.26;100.00
73817;BME280;62146;53.232;-1.304;2023-03-16T07:27:24;99129.31;;;9.28;100.00
73817;BME280;62146;53.232;-1.304;2023-03-16T07:29:52;99133.28;;;9.31;100.00
73817;BME280;62146;53.232;-1.304;2023-03-16T07:32:19;99134.88;;;9.32;100.00
73817;BME280;62146;53.232;-1.304;2023-03-16T07:34:47;99139.94;;;9.33;100.00
73817;BME280;62146;53.232;-1.304;2023-03-16T07:37:13;99136.72;;;9.36;100.00
73817;BME280;62146;53.232;-1.304;2023-03-16T07:39:43;99137.28;;;9.38;100.00
73817;BME280;62146;53.232;-1.304;2023-03-16T07:42:10;99127.22;;;9.40;100.00
73817;BME280;62146;53.232;-1.304;2023-03-16T07:44:36;99134.63;;;9.43;100.00
73817;BME280;62146;53.232;-1.304;2023-03-16T07:47:03;99127.25;;;9.45;100.00
73817;BME280;62146;53.232;-1.304;2023-03-16T07:49:29;99134.91;;;9.46;100.00
73817;BME280;62146;53.232;-1.304;2023-03-16T07:51:56;99139.91;;;9.48;100.00
73817;BME280;62146;53.232;-1.304;2023-03-16T07:54:23;99150.25;;;9.49;100.00
73817;BME280;62146;53.232;-1.304;2023-03-16T07:56:50;99151.56;;;9.52;100.00
73817;BME280;62146;53.232;-1.304;2023-03-16T07:59:16;99152.91;;;9.54;100.00
73817;BME280;62146;53.232;-1.304;2023-03-16T08:01:47;99154.25;;;9.57;100.00
73817;BME280;62146;53.232;-1.304;2023-03-16T08:04:14;99155.03;;;9.57;100.00
73817;BME280;62146;53.232;-1.304;2023-03-16T08:06:40;99147.59;;;9.59;100.00
73817;BME280;62146;53.232;-1.304;2023-03-16T08:09:08;99147.38;;;9.61;100.00
73817;BME280;62146;53.232;-1.304;2023-03-16T08:11:34;99146.84;;;9.63;100.00
73817;BME280;62146;53.232;-1.304;2023-03-16T08:14:01;99140.50;;;9.64;100.00
73817;BME280;62146;53.232;-1.304;2023-03-16T08:16:28;99138.34;;;9.66;100.00
73817;BME280;62146;53.232;-1.304;2023-03-16T08:18:55;99130.69;;;9.70;100.00
73817;BME280;62146;53.232;-1.304;2023-03-16T08:21:22;99129.63;;;9.71;100.00
73817;BME280;62146;53.232;-1.304;2023-03-16T08:23:49;99135.47;;;9.73;100.00
73817;BME280;62146;53.232;-1.304;2023-03-16T08:26:17;99143.13;;;9.74;100.00
73817;BME280;62146;53.232;-1.304;2023-03-16T08:28:45;99142.09;;;9.75;100.00
73817;BME280;62146;53.232;-1.304;2023-03-16T08:31:13;99137.31;;;9.77;100.00
73817;BME280;62146;53.232;-1.304;2023-03-16T08:33:44;99138.88;;;9.78;100.00
73817;BME280;62146;53.232;-1.304;2023-03-16T08:36:13;99125.41;;;9.80;100.00
73817;BME280;62146;53.232;-1.304;2023-03-16T08:38:40;99133.06;;;9.81;100.00
73817;BME280;62146;53.232;-1.304;2023-03-16T08:41:10;99128.56;;;9.82;100.00
73817;BME280;62146;53.232;-1.304;2023-03-16T08:43:37;99137.84;;;9.84;100.00
73817;BME280;62146;53.232;-1.304;2023-03-16T08:46:04;99138.38;;;9.86;100.00
73817;BME280;62146;53.232;-1.304;2023-03-16T08:48:32;99140.50;;;9.89;100.00
73817;BME280;62146;53.232;-1.304;2023-03-16T08:51:02;99138.41;;;9.91;100.00
73817;BME280;62146;53.232;-1.304;2023-03-16T08:53:29;99138.66;;;9.94;100.00
73817;BME280;62146;53.232;-1.304;2023-03-16T08:56:10;99137.31;;;9.97;100.00
73817;BME280;62146;53.232;-1.304;2023-03-16T08:58:38;99137.59;;;10.00;100.00
73817;BME280;62146;53.232;-1.304;2023-03-16T09:01:05;99133.63;;;10.03;100.00
73817;BME280;62146;53.232;-1.304;2023-03-16T09:03:32;99141.84;;;10.06;100.00
73817;BME280;62146;53.232;-1.304;2023-03-16T09:06:03;99144.47;;;10.11;100.00
73817;BME280;62146;53.232;-1.304;2023-03-16T09:08:31;99149.25;;;10.14;100.00
73817;BME280;62146;53.232;-1.304;2023-03-16T09:11:13;99143.13;;;10.18;100.00
73817;BME280;62146;53.232;-1.304;2023-03-16T09:13:40;99138.91;;;10.22;100.00
73817;BME280;62146;53.232;-1.304;2023-03-16T09:16:10;99139.44;;;10.24;100.00
73817;BME280;62146;53.232;-1.304;2023-03-16T09:18:38;99142.59;;;10.26;100.00
73817;BME280;62146;53.232;-1.304;2023-03-16T09:21:06;99135.41;;;10.32;100.00
73817;BME280;62146;53.232;-1.304;2023-03-16T09:23:33;99122.44;;;10.35;100.00
73817;BME280;62146;53.232;-1.304;2023-03-16T09:26:04;99122.19;;;10.37;100.00
73817;BME280;62146;53.232;-1.304;2023-03-16T09:28:34;99120.59;;;10.41;100.00
73817;BME280;62146;53.232;-1.304;2023-03-16T09:31:01;99122.94;;;10.42;100.00
73817;BME280;62146;53.232;-1.304;2023-03-16T09:33:29;99130.66;;;10.43;100.00
73817;BME280;62146;53.232;-1.304;2023-03-16T09:35:58;99137.25;;;10.46;100.00
73817;BME280;62146;53.232;-1.304;2023-03-16T09:38:25;99131.69;;;10.47;100.00
73817;BME280;62146;53.232;-1.304;2023-03-16T09:41:07;99129.03;;;10.47;100.00
73817;BME280;62146;53.232;-1.304;2023-03-16T09:43:59;99135.66;;;10.50;100.00
73817;BME280;62146;53.232;-1.304;2023-03-16T09:46:34;99138.28;;;10.50;100.00
73817;BME280;62146;53.232;-1.304;2023-03-16T09:49:03;99141.75;;;10.50;100.00
73817;BME280;62146;53.232;-1.304;2023-03-16T09:54:52;99136.69;;;10.54;100.00
73817;BME280;62146;53.232;-1.304;2023-03-16T09:57:30;99124.50;;;10.53;100.00
73817;BME280;62146;53.232;-1.304;2023-03-16T10:00:21;99118.13;;;10.54;100.00
73817;BME280;62146;53.232;-1.304;2023-03-16T10:06:11;99120.78;;;10.59;100.00
73817;BME280;62146;53.232;-1.304;2023-03-16T10:08:42;99115.72;;;10.62;100.00
73817;BME280;62146;53.232;-1.304;2023-03-16T10:11:40;99119.69;;;10.65;100.00
73817;BME280;62146;53.232;-1.304;2023-03-16T10:14:16;99116.75;;;10.66;100.00
73817;BME280;62146;53.232;-1.304;2023-03-16T10:16:53;99115.19;;;10.70;100.00
73817;BME280;62146;53.232;-1.304;2023-03-16T10:21:56;99112.22;;;10.76;100.00
73817;BME280;62146;53.232;-1.304;2023-03-16T10:27:31;99121.47;;;10.84;100.00
73817;BME280;62146;53.232;-1.304;2023-03-16T10:29:58;99136.06;;;10.86;100.00
73817;BME280;62146;53.232;-1.304;2023-03-16T10:32:30;99118.53;;;10.90;100.00
73817;BME280;62146;53.232;-1.304;2023-03-16T10:35:02;99114.28;;;10.94;100.00
73817;BME280;62146;53.232;-1.304;2023-03-16T10:37:31;99104.97;;;10.96;100.00
73817;BME280;62146;53.232;-1.304;2023-03-16T10:39:58;99105.50;;;10.98;100.00
73817;BME280;62146;53.232;-1.304;2023-03-16T10:42:26;99095.94;;;11.02;100.00
73817;BME280;62146;53.232;-1.304;2023-03-16T10:44:57;99086.63;;;11.05;100.00
73817;BME280;62146;53.232;-1.304;2023-03-16T10:47:29;99094.03;;;11.08;100.00
73817;BME280;62146;53.232;-1.304;2023-03-16T10:49:56;99087.38;;;11.10;100.00
73817;BME280;62146;53.232;-1.304;2023-03-16T10:54:53;99084.16;;;11.18;100.00
73817;BME280;62146;53.232;-1.304;2023-03-16T10:59:54;99090.50;;;11.22;100.00
73817;BME280;62146;53.232;-1.304;2023-03-16T11:02:31;99081.19;;;11.24;100.00
73817;BME280;62146;53.232;-1.304;2023-03-16T11:04:58;99084.88;;;11.28;100.00
73817;BME280;62146;53.232;-1.304;2023-03-16T11:07:26;99074.00;;;11.30;100.00
73817;BME280;62146;53.232;-1.304;2023-03-16T11:09:55;99081.41;;;11.33;100.00
73817;BME280;62146;53.232;-1.304;2023-03-16T11:12:29;99071.03;;;11.36;100.00
73817;BME280;62146;53.232;-1.304;2023-03-16T11:15:08;99070.50;;;11.39;100.00
73817;BME280;62146;53.232;-1.304;2023-03-16T11:17:51;99083.22;;;11.42;100.00
73817;BME280;62146;53.232;-1.304;2023-03-16T11:20:24;99089.06;;;11.44;100.00
73817;BME280;62146;53.232;-1.304;2023-03-16T11:22:51;99082.66;;;11.45;100.00
73817;BME280;62146;53.232;-1.304;2023-03-16T11:25:25;99084.78;;;11.48;100.00
73817;BME280;62146;53.232;-1.304;2023-03-16T11:30:50;99074.69;;;11.50;100.00
73817;BME280;62146;53.232;-1.304;2023-03-16T11:33:20;99078.13;;;11.51;100.00
73817;BME280;62146;53.232;-1.304;2023-03-16T11:35:55;99087.91;;;11.55;100.00
73817;BME280;62146;53.232;-1.304;2023-03-16T11:38:36;99094.31;;;11.54;100.00
73817;BME280;62146;53.232;-1.304;2023-03-16T11:41:11;99099.81;;;11.57;100.00
73817;BME280;62146;53.232;-1.304;2023-03-16T11:44:06;99096.91;;;11.59;100.00
73817;BME280;62146;53.232;-1.304;2023-03-16T12:03:30;99068.13;;;11.71;100.00
73817;BME280;62146;53.232;-1.304;2023-03-16T12:09:28;99062.50;;;11.77;100.00
73817;BME280;62146;53.232;-1.304;2023-03-16T12:16:56;99055.19;;;11.92;100.00
73817;BME280;62146;53.232;-1.304;2023-03-16T12:19:43;99052.47;;;11.97;100.00
73817;BME280;62146;53.232;-1.304;2023-03-16T12:22:32;99043.66;;;12.02;100.00
73817;BME280;62146;53.232;-1.304;2023-03-16T12:25:02;99057.66;;;12.07;100.00
73817;BME280;62146;53.232;-1.304;2023-03-16T12:27:32;99043.81;;;12.10;100.00
73817;BME280;62146;53.232;-1.304;2023-03-16T12:30:35;99035.81;;;12.15;100.00
73817;BME280;62146;53.232;-1.304;2023-03-16T12:33:17;99032.81;;;12.21;100.00
73817;BME280;62146;53.232;-1.304;2023-03-16T12:39:01;99036.16;;;12.31;100.00
73817;BME280;62146;53.232;-1.304;2023-03-16T12:44:24;99038.19;;;12.39;100.00
73817;BME280;62146;53.232;-1.304;2023-03-16T12:47:05;99034.19;;;12.42;100.00
73817;BME280;62146;53.232;-1.304;2023-03-16T12:49:38;99039.72;;;12.45;100.00
73817;BME280;62146;53.232;-1.304;2023-03-16T12:52:08;99042.88;;;12.47;100.00
73817;BME280;62146;53.232;-1.304;2023-03-16T12:57:17;99049.22;;;12.51;100.00
73817;BME280;62146;53.232;-1.304;2023-03-16T12:59:46;99044.69;;;12.52;100.00
73817;BME280;62146;53.232;-1.304;2023-03-16T13:02:36;99050.50;;;12.54;100.00
73817;BME280;62146;53.232;-1.304;2023-03-16T13:05:08;99048.66;;;12.54;100.00
73817;BME280;62146;53.232;-1.304;2023-03-16T13:07:35;99044.91;;;12.55;100.00
73817;BME280;62146;53.232;-1.304;2023-03-16T13:12:35;99041.16;;;12.56;100.00
73817;BME280;62146;53.232;-1.304;2023-03-16T13:28:37;99031.25;;;12.61;100.00
73817;BME280;62146;53.232;-1.304;2023-03-16T13:31:21;99032.53;;;12.64;100.00
73817;BME280;62146;53.232;-1.304;2023-03-16T13:33:52;99028.84;;;12.65;100.00
73817;BME280;62146;53.232;-1.304;2023-03-16T13:36:21;99019.78;;;12.66;100.00
73817;BME280;62146;53.232;-1.304;2023-03-16T13:41:39;99017.81;;;12.71;100.00
73817;BME280;62146;53.232;-1.304;2023-03-16T13:44:13;99012.50;;;12.71;100.00
73817;BME280;62146;53.232;-1.304;2023-03-16T13:46:40;99006.66;;;12.74;100.00
73817;BME280;62146;53.232;-1.304;2023-03-16T13:49:10;99013.53;;;12.75;100.00
73817;BME280;62146;53.232;-1.304;2023-03-16T13:51:37;99023.13;;;12.76;100.00
73817;BME280;62146;53.232;-1.304;2023-03-16T13:54:27;99028.72;;;12.75;100.00
73817;BME280;62146;53.232;-1.304;2023-03-16T13:56:58;99022.34;;;12.76;100.00
73817;BME280;62146;53.232;-1.304;2023-03-16T13:59:25;99013.28;;;12.77;100.00
73817;BME280;62146;53.232;-1.304;2023-03-16T14:01:59;99009.53;;;12.78;100.00
73817;BME280;62146;53.232;-1.304;2023-03-16T14:04:29;99019.06;;;12.79;100.00
73817;BME280;62146;53.232;-1.304;2023-03-16T14:07:01;99021.75;;;12.79;100.00
73817;BME280;62146;53.232;-1.304;2023-03-16T14:09:31;99026.00;;;12.80;100.00
73817;BME280;62146;53.232;-1.304;2023-03-16T14:12:00;99010.84;;;12.80;100.00
73817;BME280;62146;53.232;-1.304;2023-03-16T14:14:31;99014.28;;;12.81;100.00
73817;BME280;62146;53.232;-1.304;2023-03-16T14:17:09;99010.22;;;12.83;100.00
73817;BME280;62146;53.232;-1.304;2023-03-16T14:20:01;99017.16;;;12.84;100.00
73817;BME280;62146;53.232;-1.304;2023-03-16T14:22:36;99016.84;;;12.85;100.00
73817;BME280;62146;53.232;-1.304;2023-03-16T14:25:04;99017.66;;;12.86;100.00